Aromas, CA

7:04 AM PDT on September 30, 2016 (GMT -0700)
Aromas Heights | | Change Station

Elev 160 ft 36.89 °N, 121.65 °W | Updated 14 seconds ago

Overcast
Overcast
53.9 °F
Feels Like 53.9 °F
N
0.0
Wind Variable Wind from ESE
Gusts 0.0 mph

Today
High -- | Low -- °F
--% Chance of Precip.
Yesterday
High -- | Low -- °F
Precip. -- in
Pressure 30.12 in
Visibility 8.0 miles
Clouds Overcast 600 ft
Dew Point 51 °F
Humidity 91%
Rainfall 0.00 in
Snow Depth Not available.
7:01 AM 6:50 PM
Waning Crescent, 0% visible
METAR KWVI 301353Z AUTO 00000KT 8SM OVC006 12/11 A3012 RMK AO2 SLP199 T01170111 $
Pressure 30.12 in
Visibility 8.0 miles
Clouds Overcast 600 ft
Dew Point 51 °F
Humidity 91%
Rainfall 0.00 in
Snow Depth Not available.
7:01 AM 6:50 PM
Waning Crescent, 0% visible
METAR KWVI 301353Z AUTO 00000KT 8SM OVC006 12/11 A3012 RMK AO2 SLP199 T01170111 $

10-Day Weather Forecast

Almanac

Astronomy

Sep. 30, 2016 Rise Set
Actual Time
Civil Twilight
Nautical Twilight
Astronomical Twilight
Moon
Length of Visible Light
Length of Day
Tomorrow will be .
, % of the Moon is Illuminated

Today's Extremes

State Highs State Lows

Community

WunderPhotos

Upload Photos

1,942,716 photos uploaded!

WunderBlog® & News

Nearby

Air Quality

  Air Quality AQ Index Pollutant
Not available.

Snow Depth

Station Depth Elevation

Earthquake Activity

City Distance Mag. Time & Date
Minimum magnitude displayed is 2.5.

Coastal Water Temperatures

Place Temperature

Stations

Nearby Weather Stations

Station Location Temp. Windchill Dew Point Humidity Wind Precip. Elev Updated Type
                   

Watches & Warnings

There are currently no watches in effect.